createdAt,value
2022-11-29T00:00:59.100Z,80.63
2022-11-29T00:03:31.960Z,80.59
2022-11-29T00:06:08.886Z,80.75
2022-11-29T00:08:41.386Z,81.13
2022-11-29T00:11:35.415Z,81.06
2022-11-29T00:14:08.273Z,80.97
2022-11-29T00:16:41.061Z,80.95
2022-11-29T00:19:14.552Z,80.87
2022-11-29T00:21:46.573Z,80.80
2022-11-29T00:24:18.849Z,80.82
2022-11-29T00:26:51.329Z,80.53
2022-11-29T00:29:23.615Z,80.23
2022-11-29T00:31:55.581Z,80.38
2022-11-29T00:34:28.156Z,80.20
2022-11-29T00:37:00.081Z,80.16
2022-11-29T00:39:32.415Z,80.28
2022-11-29T00:42:04.500Z,80.30
2022-11-29T00:44:36.396Z,80.44
2022-11-29T00:47:08.741Z,80.87
2022-11-29T00:49:41.037Z,80.72
2022-11-29T00:52:13.000Z,80.69
2022-11-29T00:54:45.221Z,80.60
2022-11-29T00:57:17.413Z,80.24
2022-11-29T00:59:49.455Z,80.41
2022-11-29T01:02:21.489Z,80.36
2022-11-29T01:04:53.456Z,80.01
2022-11-29T01:07:25.505Z,79.59
2022-11-29T01:09:57.462Z,79.77
2022-11-29T01:12:29.373Z,79.62
2022-11-29T01:15:02.131Z,79.93
2022-11-29T01:17:35.785Z,80.01
2022-11-29T01:20:11.868Z,80.14
2022-11-29T01:22:43.961Z,80.19
2022-11-29T01:25:16.573Z,80.44
2022-11-29T01:27:48.578Z,80.17
2022-11-29T01:30:20.645Z,80.26
2022-11-29T01:32:52.557Z,79.97
2022-11-29T01:35:24.416Z,79.98
2022-11-29T01:37:56.328Z,79.90
2022-11-29T01:40:28.269Z,79.48
2022-11-29T01:43:00.229Z,79.48
2022-11-29T01:45:39.378Z,79.49
2022-11-29T01:48:13.066Z,79.43
2022-11-29T01:50:45.440Z,79.61
2022-11-29T01:53:18.092Z,79.68
2022-11-29T01:56:01.282Z,80.06
2022-11-29T01:58:42.911Z,80.08
2022-11-29T02:01:15.670Z,79.96
2022-11-29T02:03:48.041Z,79.83
2022-11-29T02:06:21.158Z,79.94
2022-11-29T02:08:53.145Z,79.68
2022-11-29T02:12:08.911Z,79.72
2022-11-29T02:14:59.537Z,79.33
2022-11-29T02:17:40.213Z,79.46
2022-11-29T02:20:34.134Z,79.35
2022-11-29T02:23:21.431Z,79.33
2022-11-29T02:26:04.427Z,79.81
2022-11-29T02:29:18.529Z,79.73
2022-11-29T02:32:09.514Z,79.72
2022-11-29T02:35:01.829Z,79.86
2022-11-29T02:38:12.425Z,79.90
2022-11-29T02:41:01.103Z,79.80
2022-11-29T02:44:01.380Z,79.67
2022-11-29T02:46:57.209Z,79.72
2022-11-29T02:49:36.426Z,79.54
2022-11-29T02:52:14.315Z,79.33
2022-11-29T02:54:53.679Z,79.20
2022-11-29T02:57:32.622Z,79.23
2022-11-29T03:00:10.992Z,79.17
2022-11-29T03:02:50.516Z,79.25
2022-11-29T03:05:32.097Z,79.23
2022-11-29T03:08:17.911Z,79.36
2022-11-29T03:11:02.726Z,79.51
2022-11-29T03:13:50.921Z,79.66
2022-11-29T03:16:41.271Z,79.77
2022-11-29T03:19:32.298Z,79.69
2022-11-29T03:22:13.455Z,79.58
2022-11-29T03:24:55.913Z,79.28
2022-11-29T03:27:33.381Z,79.69
2022-11-29T03:30:10.911Z,79.20
2022-11-29T03:32:51.796Z,79.10
2022-11-29T03:35:34.769Z,78.92
2022-11-29T03:38:16.383Z,79.13
2022-11-29T03:40:56.872Z,79.19
2022-11-29T03:43:38.103Z,79.25
2022-11-29T03:46:14.183Z,79.28
2022-11-29T03:48:51.885Z,79.44
2022-11-29T03:51:30.453Z,79.23
2022-11-29T03:54:09.022Z,79.48
2022-11-29T03:56:43.166Z,79.39
2022-11-29T03:59:26.696Z,79.44
2022-11-29T04:02:32.165Z,79.41
2022-11-29T04:05:31.883Z,79.40
2022-11-29T04:08:43.170Z,79.11
2022-11-29T04:11:37.353Z,78.94
2022-11-29T04:14:32.257Z,78.76
2022-11-29T04:17:35.150Z,78.69
2022-11-29T04:20:39.587Z,79.13
2022-11-29T04:23:43.379Z,79.35
2022-11-29T04:26:52.565Z,79.20
2022-11-29T04:29:53.251Z,79.28
2022-11-29T04:32:54.296Z,79.09
2022-11-29T04:35:40.087Z,79.08
2022-11-29T04:39:01.225Z,79.52
2022-11-29T04:42:03.143Z,79.12
2022-11-29T04:45:11.791Z,78.73
2022-11-29T04:47:56.760Z,78.46
2022-11-29T04:50:44.237Z,78.69
2022-11-29T04:53:32.277Z,78.75
2022-11-29T04:56:15.326Z,78.70
2022-11-29T04:58:56.206Z,78.80
2022-11-29T05:01:33.281Z,78.89
2022-11-29T05:04:15.023Z,78.84
2022-11-29T05:06:53.539Z,79.07
2022-11-29T05:09:33.469Z,78.95
2022-11-29T05:12:12.700Z,78.89
2022-11-29T05:15:00.868Z,78.99
2022-11-29T05:17:50.029Z,79.03
2022-11-29T05:20:35.001Z,78.92
2022-11-29T05:23:21.097Z,78.37
2022-11-29T05:26:01.435Z,78.52
2022-11-29T05:28:44.224Z,78.61
2022-11-29T05:31:31.709Z,78.69
2022-11-29T05:34:22.815Z,78.70
2022-11-29T05:37:08.526Z,78.52
2022-11-29T05:39:50.374Z,78.50
2022-11-29T05:42:39.794Z,78.96
2022-11-29T05:45:19.460Z,78.84
2022-11-29T05:48:00.602Z,78.70
2022-11-29T05:50:38.652Z,78.85
2022-11-29T05:53:22.720Z,78.86
2022-11-29T05:56:04.718Z,78.75
2022-11-29T05:58:47.605Z,78.60
2022-11-29T06:01:24.650Z,78.24
2022-11-29T06:04:05.624Z,78.35
2022-11-29T06:06:45.877Z,78.48
2022-11-29T06:09:24.215Z,78.45
2022-11-29T06:12:02.570Z,78.72
2022-11-29T06:14:55.458Z,78.70
2022-11-29T06:17:48.861Z,78.65
2022-11-29T06:20:43.367Z,78.77
2022-11-29T06:23:33.121Z,78.75
2022-11-29T06:26:18.674Z,78.68
2022-11-29T06:29:01.786Z,78.69
2022-11-29T06:31:38.255Z,78.48
2022-11-29T06:34:19.043Z,78.09
2022-11-29T06:36:55.486Z,78.10
2022-11-29T06:39:28.438Z,78.12
2022-11-29T06:42:00.539Z,78.19
2022-11-29T06:44:33.459Z,78.26
2022-11-29T06:47:10.381Z,78.53
2022-11-29T06:49:48.210Z,78.61
2022-11-29T06:52:29.364Z,78.38
2022-11-29T06:55:15.765Z,78.53
2022-11-29T06:58:04.239Z,78.29
2022-11-29T07:00:49.506Z,78.35
2022-11-29T07:03:51.402Z,78.36
2022-11-29T07:06:25.985Z,78.44
2022-11-29T07:09:01.271Z,78.10
2022-11-29T07:11:35.754Z,78.12
2022-11-29T07:14:10.550Z,77.86
2022-11-29T07:16:57.011Z,77.92
2022-11-29T07:19:38.076Z,78.11
2022-11-29T07:22:28.550Z,78.28
2022-11-29T07:25:07.937Z,78.46
2022-11-29T07:27:47.515Z,78.25
2022-11-29T07:30:24.717Z,78.26
2022-11-29T07:33:07.313Z,78.35
2022-11-29T07:35:47.252Z,78.20
2022-11-29T07:38:27.305Z,78.19
2022-11-29T07:41:06.363Z,78.32
2022-11-29T07:43:49.000Z,78.17
2022-11-29T07:46:21.002Z,78.01
2022-11-29T07:48:53.748Z,77.77
2022-11-29T07:51:26.427Z,77.91
2022-11-29T07:53:58.362Z,77.85
2022-11-29T07:56:30.403Z,77.92
2022-11-29T07:59:02.822Z,78.07
2022-11-29T08:01:35.514Z,78.11
2022-11-29T08:04:07.834Z,78.20
2022-11-29T08:06:39.948Z,78.10
2022-11-29T08:09:11.891Z,78.10
2022-11-29T08:11:44.862Z,78.18
2022-11-29T08:14:16.813Z,78.19
2022-11-29T08:16:49.161Z,78.08
2022-11-29T08:19:21.150Z,77.77
2022-11-29T08:21:54.006Z,77.78
2022-11-29T08:24:26.968Z,77.78
2022-11-29T08:26:58.933Z,77.69
2022-11-29T08:29:30.949Z,77.89
2022-11-29T08:32:03.096Z,78.00
2022-11-29T08:34:35.206Z,78.00
2022-11-29T08:37:07.170Z,78.28
2022-11-29T08:39:39.157Z,78.08
2022-11-29T08:42:11.122Z,77.81
2022-11-29T08:44:43.579Z,77.88
2022-11-29T08:47:33.173Z,78.04
2022-11-29T08:50:05.880Z,77.81
2022-11-29T08:52:57.606Z,77.71
2022-11-29T08:55:33.589Z,77.62
2022-11-29T08:58:08.855Z,77.59
2022-11-29T09:00:41.523Z,77.85
2022-11-29T09:03:30.959Z,77.63
2022-11-29T09:06:12.262Z,78.06
2022-11-29T09:08:45.738Z,78.07
2022-11-29T09:11:19.963Z,77.99
2022-11-29T09:13:54.480Z,78.03
2022-11-29T09:16:28.386Z,77.91
2022-11-29T09:19:00.371Z,78.12
2022-11-29T09:21:33.570Z,78.10
2022-11-29T09:24:10.276Z,78.14
2022-11-29T09:26:42.539Z,77.68
2022-11-29T09:29:14.477Z,77.62
2022-11-29T09:31:46.559Z,77.45
2022-11-29T09:34:19.631Z,77.64
2022-11-29T09:36:51.514Z,77.86
2022-11-29T09:39:23.509Z,77.60
2022-11-29T09:42:23.223Z,77.79
2022-11-29T09:45:04.272Z,77.85
2022-11-29T09:48:05.551Z,78.03
2022-11-29T09:50:43.174Z,78.03
2022-11-29T09:53:29.418Z,77.99
2022-11-29T09:56:12.474Z,77.88
2022-11-29T09:58:49.422Z,77.82
2022-11-29T10:01:25.014Z,77.59
2022-11-29T10:04:02.206Z,77.46
2022-11-29T10:06:39.000Z,77.61
2022-11-29T10:09:19.548Z,77.51
2022-11-29T10:12:02.724Z,77.55
2022-11-29T10:14:40.831Z,77.48
2022-11-29T10:17:30.589Z,77.66
2022-11-29T10:20:10.590Z,77.55
2022-11-29T10:22:49.595Z,77.55
2022-11-29T10:25:26.961Z,77.57
2022-11-29T10:27:58.950Z,77.70
2022-11-29T10:30:32.459Z,77.59
2022-11-29T10:33:04.640Z,77.45
2022-11-29T10:35:36.552Z,77.35
2022-11-29T10:41:09.768Z,77.13
2022-11-29T10:43:43.194Z,77.31
2022-11-29T10:46:22.588Z,77.23
2022-11-29T10:48:55.717Z,77.26
2022-11-29T10:51:27.937Z,77.70
2022-11-29T10:54:15.721Z,77.74
2022-11-29T10:56:49.323Z,77.52
2022-11-29T10:59:26.561Z,77.43
2022-11-29T11:01:59.051Z,77.34
2022-11-29T11:04:35.301Z,77.31
2022-11-29T11:07:08.748Z,77.38
2022-11-29T11:09:43.756Z,77.21
2022-11-29T11:12:19.599Z,77.10
2022-11-29T11:14:51.530Z,77.06
2022-11-29T11:17:30.275Z,77.00
2022-11-29T11:20:05.878Z,77.15
2022-11-29T11:22:40.030Z,77.22
2022-11-29T11:25:30.607Z,77.42
2022-11-29T11:28:18.240Z,77.41
2022-11-29T11:30:56.782Z,77.34
2022-11-29T11:33:31.316Z,77.37
2022-11-29T11:36:14.175Z,77.50
2022-11-29T11:38:54.127Z,77.61
2022-11-29T11:41:43.780Z,77.63
2022-11-29T11:44:57.969Z,77.57
2022-11-29T11:47:24.396Z,77.46
2022-11-29T11:50:08.035Z,77.41
2022-11-29T11:52:50.445Z,77.33
2022-11-29T11:55:34.376Z,76.99
2022-11-29T11:58:22.989Z,77.02
2022-11-29T12:01:05.639Z,77.19
2022-11-29T12:03:53.925Z,77.08
2022-11-29T12:06:33.411Z,76.98
2022-11-29T12:09:14.054Z,77.01
2022-11-29T12:11:55.336Z,76.97
2022-11-29T12:14:35.422Z,77.36
2022-11-29T12:17:20.217Z,77.27
2022-11-29T12:20:05.472Z,77.25
2022-11-29T12:22:48.110Z,77.35
2022-11-29T12:25:26.226Z,77.40
2022-11-29T12:27:58.639Z,77.37
2022-11-29T12:30:31.329Z,77.03
2022-11-29T12:33:23.005Z,77.02
2022-11-29T12:36:15.013Z,76.86
2022-11-29T12:39:01.313Z,76.99
2022-11-29T12:41:46.263Z,77.22
2022-11-29T12:44:38.468Z,76.98
2022-11-29T12:47:37.052Z,77.08
2022-11-29T12:50:27.584Z,77.35
2022-11-29T12:53:12.371Z,77.28
2022-11-29T12:55:55.440Z,77.40
2022-11-29T12:58:34.170Z,77.33
2022-11-29T13:01:18.330Z,77.20
2022-11-29T13:03:58.728Z,77.43
2022-11-29T13:06:39.957Z,77.31
2022-11-29T13:09:35.499Z,77.29
2022-11-29T13:12:13.068Z,77.00
2022-11-29T13:14:51.380Z,76.90
2022-11-29T13:17:36.094Z,77.01
2022-11-29T13:20:20.934Z,76.80
2022-11-29T13:22:58.401Z,77.06
2022-11-29T13:25:35.331Z,77.06
2022-11-29T13:28:12.439Z,76.92
2022-11-29T13:30:45.121Z,77.04
2022-11-29T13:33:24.973Z,77.00
2022-11-29T13:36:07.734Z,77.23
2022-11-29T13:38:47.073Z,76.98
2022-11-29T13:41:34.574Z,76.97
2022-11-29T13:44:13.577Z,77.01
2022-11-29T13:46:53.175Z,76.72
2022-11-29T13:49:46.023Z,76.31
2022-11-29T13:52:41.386Z,76.54
2022-11-29T13:55:31.371Z,76.53
2022-11-29T13:58:16.771Z,76.42
2022-11-29T14:00:53.887Z,76.54
2022-11-29T14:03:35.131Z,76.92
2022-11-29T14:06:21.312Z,76.91
2022-11-29T14:09:22.642Z,76.83
2022-11-29T14:12:03.229Z,77.07
2022-11-29T14:14:43.130Z,77.00
2022-11-29T14:17:36.853Z,77.00
2022-11-29T14:20:52.183Z,76.71
2022-11-29T14:23:42.686Z,76.61
2022-11-29T14:26:31.646Z,76.81
2022-11-29T14:29:23.574Z,76.72
2022-11-29T14:31:56.560Z,76.30
2022-11-29T14:34:44.827Z,76.43
2022-11-29T14:37:45.729Z,76.35
2022-11-29T14:40:32.715Z,76.46
2022-11-29T14:43:16.454Z,76.70
2022-11-29T14:45:48.750Z,76.78
2022-11-29T14:48:31.337Z,76.84
2022-11-29T14:51:13.568Z,76.76
2022-11-29T14:53:47.248Z,77.10
2022-11-29T14:56:39.743Z,76.81
2022-11-29T14:59:49.489Z,76.91
2022-11-29T15:02:32.563Z,76.78
2022-11-29T15:05:18.710Z,76.74
2022-11-29T15:08:02.884Z,76.66
2022-11-29T15:10:41.155Z,76.35
2022-11-29T15:13:18.715Z,76.03
2022-11-29T15:16:10.107Z,76.43
2022-11-29T15:19:09.542Z,76.32
2022-11-29T15:21:53.446Z,76.68
2022-11-29T15:24:28.697Z,76.45
2022-11-29T15:27:03.332Z,76.68
2022-11-29T15:29:35.243Z,76.71
2022-11-29T15:32:14.038Z,76.69
2022-11-29T15:34:51.429Z,76.72
2022-11-29T15:37:42.808Z,76.74
2022-11-29T15:40:18.422Z,76.54
2022-11-29T15:42:54.736Z,76.64
2022-11-29T15:45:33.601Z,76.45
2022-11-29T15:48:17.914Z,76.52
2022-11-29T15:50:58.863Z,76.29
2022-11-29T15:53:35.536Z,76.26
2022-11-29T15:56:14.774Z,76.19
2022-11-29T15:58:49.038Z,76.19
2022-11-29T16:01:23.212Z,76.11
2022-11-29T16:03:58.008Z,76.29
2022-11-29T16:06:35.298Z,76.29
2022-11-29T16:09:11.802Z,76.38
2022-11-29T16:11:44.317Z,76.49
2022-11-29T16:14:24.886Z,76.39
2022-11-29T16:17:00.666Z,76.41
2022-11-29T16:19:38.081Z,76.53
2022-11-29T16:22:23.813Z,76.60
2022-11-29T16:25:06.811Z,76.48
2022-11-29T16:27:39.439Z,76.24
2022-11-29T16:30:23.794Z,76.28
2022-11-29T16:32:59.113Z,75.91
2022-11-29T16:35:33.870Z,76.04
2022-11-29T16:38:17.425Z,75.96
2022-11-29T16:41:05.187Z,75.96
2022-11-29T16:43:54.029Z,75.96
2022-11-29T16:46:42.518Z,76.18
2022-11-29T16:49:40.186Z,76.23
2022-11-29T16:52:28.078Z,76.27
2022-11-29T16:55:00.659Z,76.17
2022-11-29T16:57:33.170Z,76.26
2022-11-29T17:00:12.943Z,76.13
2022-11-29T17:02:45.766Z,76.37
2022-11-29T17:05:18.110Z,76.25
2022-11-29T17:07:50.913Z,76.12
2022-11-29T17:10:26.510Z,76.10
2022-11-29T17:12:58.525Z,75.86
2022-11-29T17:15:30.474Z,75.80
2022-11-29T17:18:02.788Z,75.69
2022-11-29T17:20:35.030Z,76.05
2022-11-29T17:23:07.045Z,75.92
2022-11-29T17:25:39.082Z,75.96
2022-11-29T17:28:11.022Z,76.23
2022-11-29T17:30:43.309Z,76.13
2022-11-29T17:33:15.310Z,75.99
2022-11-29T17:35:47.272Z,76.25
2022-11-29T17:38:19.260Z,76.07
2022-11-29T17:40:51.172Z,75.90
2022-11-29T17:43:23.085Z,76.17
2022-11-29T17:45:55.140Z,75.95
2022-11-29T17:48:32.113Z,76.02
2022-11-29T17:51:17.219Z,76.05
2022-11-29T17:54:00.659Z,75.56
2022-11-29T17:56:33.134Z,75.62
2022-11-29T17:59:06.148Z,75.58
2022-11-29T18:01:38.863Z,75.70
2022-11-29T18:04:10.883Z,75.81
2022-11-29T18:06:43.661Z,75.81
2022-11-29T18:09:15.564Z,75.79
2022-11-29T18:11:49.956Z,76.01
2022-11-29T18:14:28.214Z,76.07
2022-11-29T18:17:00.393Z,75.81
2022-11-29T18:19:32.328Z,76.03
2022-11-29T18:22:04.263Z,75.97
2022-11-29T18:24:36.151Z,75.77
2022-11-29T18:27:08.140Z,75.73
2022-11-29T18:29:40.054Z,75.78
2022-11-29T18:32:11.965Z,76.01
2022-11-29T18:34:44.058Z,75.53
2022-11-29T18:37:27.573Z,75.52
2022-11-29T18:40:10.305Z,75.43
2022-11-29T18:42:42.195Z,75.11
2022-11-29T18:45:16.336Z,75.36
2022-11-29T18:47:48.219Z,75.83
2022-11-29T18:50:20.208Z,75.70
2022-11-29T18:52:54.373Z,75.60
2022-11-29T18:55:26.337Z,75.72
2022-11-29T18:57:58.326Z,75.61
2022-11-29T19:00:30.315Z,75.64
2022-11-29T19:03:02.227Z,75.43
2022-11-29T19:05:34.522Z,75.57
2022-11-29T19:08:06.641Z,75.53
2022-11-29T19:10:41.189Z,75.64
2022-11-29T19:13:13.152Z,75.51
2022-11-29T19:15:45.162Z,75.36
2022-11-29T19:18:17.130Z,75.27
2022-11-29T19:20:49.225Z,74.95
2022-11-29T19:23:21.647Z,75.10
2022-11-29T19:25:53.877Z,75.06
2022-11-29T19:28:25.829Z,75.23
2022-11-29T19:30:58.235Z,75.33
2022-11-29T19:33:30.422Z,75.43
2022-11-29T19:36:08.108Z,75.60
2022-11-29T19:38:40.701Z,75.38
2022-11-29T19:41:13.657Z,75.32
2022-11-29T19:43:46.312Z,75.23
2022-11-29T19:46:20.679Z,75.33
2022-11-29T19:48:54.438Z,75.23
2022-11-29T19:51:28.450Z,75.29
2022-11-29T19:54:03.050Z,75.24
2022-11-29T19:56:35.935Z,75.04
2022-11-29T19:59:09.025Z,75.15
2022-11-29T20:01:42.650Z,74.92
2022-11-29T20:04:16.971Z,75.03
2022-11-29T20:06:51.599Z,74.79
2022-11-29T20:09:23.560Z,74.70
2022-11-29T20:11:55.525Z,74.83
2022-11-29T20:14:27.819Z,75.31
2022-11-29T20:16:59.758Z,75.20
2022-11-29T20:19:31.706Z,74.96
2022-11-29T20:22:03.735Z,75.17
2022-11-29T20:24:41.245Z,75.22
2022-11-29T20:27:17.058Z,75.08
2022-11-29T20:29:49.166Z,75.01
2022-11-29T20:32:22.341Z,75.22
2022-11-29T20:34:55.478Z,75.21
2022-11-29T20:37:50.203Z,75.13
2022-11-29T20:40:29.106Z,75.24
2022-11-29T20:43:13.255Z,75.00
2022-11-29T20:45:45.915Z,74.75
2022-11-29T20:48:22.020Z,74.76
2022-11-29T20:50:57.953Z,74.78
2022-11-29T20:53:39.054Z,74.64
2022-11-29T20:56:12.502Z,74.60
2022-11-29T20:58:44.466Z,75.01
2022-11-29T21:01:16.426Z,74.96
2022-11-29T21:03:48.500Z,75.06
2022-11-29T21:06:20.489Z,75.13
2022-11-29T21:08:52.584Z,75.26
2022-11-29T21:11:25.469Z,75.11
2022-11-29T21:13:58.493Z,74.76
2022-11-29T21:16:34.874Z,74.93
2022-11-29T21:19:13.716Z,75.01
2022-11-29T21:22:05.263Z,74.70
2022-11-29T21:24:46.651Z,74.97
2022-11-29T21:27:24.652Z,74.37
2022-11-29T21:30:00.809Z,74.24
2022-11-29T21:32:33.949Z,74.56
2022-11-29T21:35:06.405Z,74.47
2022-11-29T21:37:38.701Z,74.51
2022-11-29T21:40:13.942Z,74.85
2022-11-29T21:42:46.163Z,74.72
2022-11-29T21:45:18.176Z,74.82
2022-11-29T21:47:50.728Z,74.73
2022-11-29T21:50:22.770Z,74.89
2022-11-29T21:52:55.092Z,74.98
2022-11-29T21:55:31.838Z,74.81
2022-11-29T21:58:04.650Z,74.83
2022-11-29T22:00:37.673Z,74.62
2022-11-29T22:03:10.498Z,74.92
2022-11-29T22:05:43.372Z,74.75
2022-11-29T22:08:15.551Z,74.37
2022-11-29T22:10:47.951Z,74.32
2022-11-29T22:13:19.859Z,74.46
2022-11-29T22:15:51.972Z,74.37
2022-11-29T22:18:27.120Z,74.44
2022-11-29T22:21:02.049Z,74.76
2022-11-29T22:23:34.193Z,74.72
2022-11-29T22:26:10.071Z,74.78
2022-11-29T22:28:42.009Z,74.81
2022-11-29T22:31:14.922Z,74.68
2022-11-29T22:33:46.858Z,74.68
2022-11-29T22:36:18.770Z,74.74
2022-11-29T22:38:50.733Z,74.70
2022-11-29T22:41:22.943Z,74.63
2022-11-29T22:43:55.198Z,74.49
2022-11-29T22:46:28.564Z,74.51
2022-11-29T22:49:01.840Z,74.37
2022-11-29T22:51:35.311Z,74.31
2022-11-29T22:54:09.777Z,74.09
2022-11-29T22:56:42.976Z,74.27
2022-11-29T22:59:15.176Z,74.66
2022-11-29T23:01:47.349Z,74.41
2022-11-29T23:04:19.377Z,74.67
2022-11-29T23:06:51.522Z,74.44
2022-11-29T23:09:24.074Z,74.61
2022-11-29T23:11:57.241Z,74.47
2022-11-29T23:14:29.255Z,74.49
2022-11-29T23:17:01.167Z,74.58
2022-11-29T23:19:33.062Z,74.49
2022-11-29T23:22:04.993Z,74.49
2022-11-29T23:24:39.104Z,73.92
2022-11-29T23:27:11.069Z,73.94
2022-11-29T23:29:42.954Z,74.11
2022-11-29T23:32:15.126Z,74.11
2022-11-29T23:34:47.306Z,74.17
2022-11-29T23:37:19.412Z,74.17
2022-11-29T23:39:51.477Z,74.27
2022-11-29T23:42:23.827Z,74.49
2022-11-29T23:44:55.786Z,74.48
2022-11-29T23:47:27.825Z,74.26
2022-11-29T23:50:00.022Z,74.35
2022-11-29T23:52:31.958Z,74.40
2022-11-29T23:55:03.869Z,74.11
2022-11-29T23:57:35.859Z,74.34
